sensor_id;sensor_type;location;lat;lon;timestamp;P1;durP1;ratioP1;P2;durP2;ratioP2
18142;SDS011;9197;50.930;3.140;2023-02-12T00:00:20;26.20;;;20.23;;
18142;SDS011;9197;50.930;3.140;2023-02-12T00:02:48;24.83;;;17.03;;
18142;SDS011;9197;50.930;3.140;2023-02-12T00:05:15;26.27;;;18.60;;
18142;SDS011;9197;50.930;3.140;2023-02-12T00:07:44;24.27;;;16.33;;
18142;SDS011;9197;50.930;3.140;2023-02-12T00:10:11;24.07;;;16.10;;
18142;SDS011;9197;50.930;3.140;2023-02-12T00:12:38;22.83;;;16.90;;
18142;SDS011;9197;50.930;3.140;2023-02-12T00:15:06;20.20;;;16.77;;
18142;SDS011;9197;50.930;3.140;2023-02-12T00:17:33;24.13;;;16.70;;
18142;SDS011;9197;50.930;3.140;2023-02-12T00:20:00;22.20;;;17.87;;
18142;SDS011;9197;50.930;3.140;2023-02-12T00:22:28;22.40;;;17.47;;
18142;SDS011;9197;50.930;3.140;2023-02-12T00:24:56;22.67;;;17.10;;
18142;SDS011;9197;50.930;3.140;2023-02-12T00:27:24;18.87;;;15.80;;
18142;SDS011;9197;50.930;3.140;2023-02-12T00:29:51;22.50;;;17.50;;
18142;SDS011;9197;50.930;3.140;2023-02-12T00:32:18;21.43;;;17.00;;
18142;SDS011;9197;50.930;3.140;2023-02-12T00:34:46;21.00;;;15.83;;
18142;SDS011;9197;50.930;3.140;2023-02-12T00:37:13;21.77;;;16.20;;
18142;SDS011;9197;50.930;3.140;2023-02-12T00:39:41;19.90;;;16.67;;
18142;SDS011;9197;50.930;3.140;2023-02-12T00:42:09;19.73;;;15.20;;
18142;SDS011;9197;50.930;3.140;2023-02-12T00:44:37;20.90;;;16.33;;
18142;SDS011;9197;50.930;3.140;2023-02-12T00:47:04;17.67;;;14.80;;
18142;SDS011;9197;50.930;3.140;2023-02-12T00:49:31;22.03;;;15.63;;
18142;SDS011;9197;50.930;3.140;2023-02-12T00:51:59;22.07;;;15.73;;
18142;SDS011;9197;50.930;3.140;2023-02-12T00:54:27;20.90;;;16.33;;
18142;SDS011;9197;50.930;3.140;2023-02-12T00:56:54;22.20;;;15.30;;
18142;SDS011;9197;50.930;3.140;2023-02-12T00:59:23;20.10;;;15.63;;
18142;SDS011;9197;50.930;3.140;2023-02-12T01:01:50;18.70;;;15.37;;
18142;SDS011;9197;50.930;3.140;2023-02-12T01:04:18;26.57;;;23.60;;
18142;SDS011;9197;50.930;3.140;2023-02-12T01:06:45;27.03;;;22.40;;
18142;SDS011;9197;50.930;3.140;2023-02-12T01:09:13;21.10;;;18.97;;
18142;SDS011;9197;50.930;3.140;2023-02-12T01:11:40;23.53;;;16.00;;
18142;SDS011;9197;50.930;3.140;2023-02-12T01:14:07;17.73;;;14.20;;
18142;SDS011;9197;50.930;3.140;2023-02-12T01:16:36;17.33;;;14.03;;
18142;SDS011;9197;50.930;3.140;2023-02-12T01:19:04;18.17;;;13.93;;
18142;SDS011;9197;50.930;3.140;2023-02-12T01:21:32;15.77;;;13.73;;
18142;SDS011;9197;50.930;3.140;2023-02-12T01:23:59;20.60;;;14.97;;
18142;SDS011;9197;50.930;3.140;2023-02-12T01:26:27;20.23;;;15.20;;
18142;SDS011;9197;50.930;3.140;2023-02-12T01:28:55;16.73;;;13.47;;
18142;SDS011;9197;50.930;3.140;2023-02-12T01:31:23;16.33;;;13.93;;
18142;SDS011;9197;50.930;3.140;2023-02-12T01:33:53;17.83;;;13.70;;
18142;SDS011;9197;50.930;3.140;2023-02-12T01:36:21;20.13;;;14.03;;
18142;SDS011;9197;50.930;3.140;2023-02-12T01:38:48;16.90;;;14.20;;
18142;SDS011;9197;50.930;3.140;2023-02-12T01:41:17;19.63;;;15.23;;
18142;SDS011;9197;50.930;3.140;2023-02-12T01:43:44;16.70;;;13.87;;
18142;SDS011;9197;50.930;3.140;2023-02-12T01:46:12;17.13;;;14.03;;
18142;SDS011;9197;50.930;3.140;2023-02-12T01:48:41;20.50;;;14.57;;
18142;SDS011;9197;50.930;3.140;2023-02-12T01:51:11;17.60;;;13.13;;
18142;SDS011;9197;50.930;3.140;2023-02-12T01:53:41;19.50;;;13.90;;
18142;SDS011;9197;50.930;3.140;2023-02-12T01:56:10;16.50;;;13.70;;
18142;SDS011;9197;50.930;3.140;2023-02-12T01:58:38;18.43;;;13.60;;
18142;SDS011;9197;50.930;3.140;2023-02-12T02:01:07;16.20;;;12.60;;
18142;SDS011;9197;50.930;3.140;2023-02-12T02:03:36;15.27;;;12.53;;
18142;SDS011;9197;50.930;3.140;2023-02-12T02:06:05;15.53;;;12.37;;
18142;SDS011;9197;50.930;3.140;2023-02-12T02:08:36;14.70;;;12.33;;
18142;SDS011;9197;50.930;3.140;2023-02-12T02:11:04;15.87;;;12.60;;
18142;SDS011;9197;50.930;3.140;2023-02-12T02:13:51;14.70;;;11.47;;
18142;SDS011;9197;50.930;3.140;2023-02-12T02:16:36;15.23;;;12.27;;
18142;SDS011;9197;50.930;3.140;2023-02-12T02:19:08;14.97;;;12.50;;
18142;SDS011;9197;50.930;3.140;2023-02-12T02:21:49;14.07;;;11.63;;
18142;SDS011;9197;50.930;3.140;2023-02-12T02:24:36;14.97;;;11.63;;
18142;SDS011;9197;50.930;3.140;2023-02-12T02:32:29;17.87;;;12.20;;
18142;SDS011;9197;50.930;3.140;2023-02-12T02:34:58;15.63;;;11.37;;
18142;SDS011;9197;50.930;3.140;2023-02-12T02:37:28;15.40;;;11.90;;
18142;SDS011;9197;50.930;3.140;2023-02-12T02:39:58;17.27;;;12.90;;
18142;SDS011;9197;50.930;3.140;2023-02-12T02:42:28;14.60;;;11.77;;
18142;SDS011;9197;50.930;3.140;2023-02-12T02:44:57;15.30;;;12.17;;
18142;SDS011;9197;50.930;3.140;2023-02-12T02:47:27;16.07;;;11.53;;
18142;SDS011;9197;50.930;3.140;2023-02-12T02:50:00;13.13;;;11.40;;
18142;SDS011;9197;50.930;3.140;2023-02-12T02:52:34;15.00;;;11.77;;
18142;SDS011;9197;50.930;3.140;2023-02-12T02:55:02;12.27;;;10.43;;
18142;SDS011;9197;50.930;3.140;2023-02-12T02:57:34;16.97;;;11.67;;
18142;SDS011;9197;50.930;3.140;2023-02-12T03:00:04;14.17;;;10.60;;
18142;SDS011;9197;50.930;3.140;2023-02-12T03:02:34;15.33;;;11.83;;
18142;SDS011;9197;50.930;3.140;2023-02-12T03:05:05;13.67;;;11.67;;
18142;SDS011;9197;50.930;3.140;2023-02-12T03:07:35;14.80;;;12.37;;
18142;SDS011;9197;50.930;3.140;2023-02-12T03:10:05;13.67;;;11.27;;
18142;SDS011;9197;50.930;3.140;2023-02-12T03:12:35;18.90;;;12.00;;
18142;SDS011;9197;50.930;3.140;2023-02-12T03:15:05;17.33;;;12.90;;
18142;SDS011;9197;50.930;3.140;2023-02-12T03:17:34;16.47;;;12.43;;
18142;SDS011;9197;50.930;3.140;2023-02-12T03:20:06;14.80;;;12.97;;
18142;SDS011;9197;50.930;3.140;2023-02-12T03:22:35;15.97;;;12.40;;
18142;SDS011;9197;50.930;3.140;2023-02-12T03:25:06;15.07;;;12.20;;
18142;SDS011;9197;50.930;3.140;2023-02-12T03:27:36;12.90;;;11.47;;
18142;SDS011;9197;50.930;3.140;2023-02-12T03:30:05;13.07;;;11.57;;
18142;SDS011;9197;50.930;3.140;2023-02-12T03:32:34;14.57;;;11.47;;
18142;SDS011;9197;50.930;3.140;2023-02-12T03:35:09;12.70;;;10.73;;
18142;SDS011;9197;50.930;3.140;2023-02-12T03:37:39;13.60;;;11.03;;
18142;SDS011;9197;50.930;3.140;2023-02-12T03:40:10;16.47;;;11.73;;
18142;SDS011;9197;50.930;3.140;2023-02-12T03:42:44;15.37;;;11.43;;
18142;SDS011;9197;50.930;3.140;2023-02-12T03:45:15;14.47;;;11.23;;
18142;SDS011;9197;50.930;3.140;2023-02-12T03:47:47;15.77;;;12.60;;
18142;SDS011;9197;50.930;3.140;2023-02-12T03:50:18;15.03;;;12.17;;
18142;SDS011;9197;50.930;3.140;2023-02-12T03:52:46;14.93;;;11.87;;
18142;SDS011;9197;50.930;3.140;2023-02-12T03:55:16;20.43;;;13.23;;
18142;SDS011;9197;50.930;3.140;2023-02-12T03:57:43;13.70;;;11.53;;
18142;SDS011;9197;50.930;3.140;2023-02-12T04:00:12;13.90;;;11.07;;
18142;SDS011;9197;50.930;3.140;2023-02-12T04:02:40;13.23;;;11.20;;
18142;SDS011;9197;50.930;3.140;2023-02-12T04:05:15;15.43;;;12.17;;
18142;SDS011;9197;50.930;3.140;2023-02-12T04:07:43;13.90;;;11.50;;
18142;SDS011;9197;50.930;3.140;2023-02-12T04:10:11;15.07;;;11.80;;
18142;SDS011;9197;50.930;3.140;2023-02-12T04:12:39;13.50;;;10.70;;
18142;SDS011;9197;50.930;3.140;2023-02-12T04:15:12;13.30;;;11.83;;
18142;SDS011;9197;50.930;3.140;2023-02-12T04:17:44;13.93;;;11.93;;
18142;SDS011;9197;50.930;3.140;2023-02-12T04:20:14;14.10;;;11.20;;
18142;SDS011;9197;50.930;3.140;2023-02-12T04:22:49;14.07;;;11.70;;
18142;SDS011;9197;50.930;3.140;2023-02-12T04:25:20;11.57;;;10.47;;
18142;SDS011;9197;50.930;3.140;2023-02-12T04:27:48;14.90;;;11.83;;
18142;SDS011;9197;50.930;3.140;2023-02-12T04:30:17;13.20;;;10.73;;
18142;SDS011;9197;50.930;3.140;2023-02-12T04:32:47;12.93;;;10.67;;
18142;SDS011;9197;50.930;3.140;2023-02-12T04:35:18;14.30;;;10.80;;
18142;SDS011;9197;50.930;3.140;2023-02-12T04:37:48;14.07;;;11.80;;
18142;SDS011;9197;50.930;3.140;2023-02-12T04:40:17;16.30;;;13.47;;
18142;SDS011;9197;50.930;3.140;2023-02-12T04:42:45;11.83;;;10.63;;
18142;SDS011;9197;50.930;3.140;2023-02-12T04:45:14;14.80;;;11.00;;
18142;SDS011;9197;50.930;3.140;2023-02-12T04:47:42;14.27;;;10.90;;
18142;SDS011;9197;50.930;3.140;2023-02-12T04:50:09;12.60;;;10.90;;
18142;SDS011;9197;50.930;3.140;2023-02-12T04:52:37;12.30;;;10.57;;
18142;SDS011;9197;50.930;3.140;2023-02-12T04:55:05;14.67;;;11.70;;
18142;SDS011;9197;50.930;3.140;2023-02-12T04:57:33;13.27;;;10.80;;
18142;SDS011;9197;50.930;3.140;2023-02-12T05:00:00;13.37;;;11.43;;
18142;SDS011;9197;50.930;3.140;2023-02-12T05:02:29;12.93;;;11.33;;
18142;SDS011;9197;50.930;3.140;2023-02-12T05:04:57;14.57;;;12.33;;
18142;SDS011;9197;50.930;3.140;2023-02-12T05:07:24;15.40;;;11.07;;
18142;SDS011;9197;50.930;3.140;2023-02-12T05:09:51;14.70;;;11.87;;
18142;SDS011;9197;50.930;3.140;2023-02-12T05:12:20;13.07;;;11.33;;
18142;SDS011;9197;50.930;3.140;2023-02-12T05:14:47;12.70;;;11.33;;
18142;SDS011;9197;50.930;3.140;2023-02-12T05:17:14;13.90;;;11.33;;
18142;SDS011;9197;50.930;3.140;2023-02-12T05:19:42;18.47;;;13.60;;
18142;SDS011;9197;50.930;3.140;2023-02-12T05:22:09;16.40;;;12.77;;
18142;SDS011;9197;50.930;3.140;2023-02-12T05:24:36;14.17;;;12.60;;
18142;SDS011;9197;50.930;3.140;2023-02-12T05:27:04;15.10;;;12.70;;
18142;SDS011;9197;50.930;3.140;2023-02-12T05:29:34;19.07;;;14.63;;
18142;SDS011;9197;50.930;3.140;2023-02-12T05:32:02;18.30;;;14.87;;
18142;SDS011;9197;50.930;3.140;2023-02-12T05:34:30;15.97;;;13.57;;
18142;SDS011;9197;50.930;3.140;2023-02-12T05:36:58;17.93;;;14.90;;
18142;SDS011;9197;50.930;3.140;2023-02-12T05:39:25;19.17;;;14.13;;
18142;SDS011;9197;50.930;3.140;2023-02-12T05:41:52;20.57;;;15.07;;
18142;SDS011;9197;50.930;3.140;2023-02-12T05:44:19;17.20;;;13.80;;
18142;SDS011;9197;50.930;3.140;2023-02-12T05:46:48;19.00;;;16.20;;
18142;SDS011;9197;50.930;3.140;2023-02-12T05:49:15;18.07;;;14.50;;
18142;SDS011;9197;50.930;3.140;2023-02-12T05:51:43;26.07;;;17.90;;
18142;SDS011;9197;50.930;3.140;2023-02-12T05:54:10;18.57;;;14.87;;
18142;SDS011;9197;50.930;3.140;2023-02-12T05:56:40;18.43;;;15.87;;
18142;SDS011;9197;50.930;3.140;2023-02-12T05:59:11;22.40;;;16.63;;
18142;SDS011;9197;50.930;3.140;2023-02-12T06:01:40;20.53;;;15.97;;
18142;SDS011;9197;50.930;3.140;2023-02-12T06:04:16;18.03;;;16.13;;
18142;SDS011;9197;50.930;3.140;2023-02-12T06:06:44;21.17;;;15.93;;
18142;SDS011;9197;50.930;3.140;2023-02-12T06:09:12;19.77;;;16.27;;
18142;SDS011;9197;50.930;3.140;2023-02-12T06:11:39;19.73;;;16.37;;
18142;SDS011;9197;50.930;3.140;2023-02-12T06:14:08;17.53;;;15.03;;
18142;SDS011;9197;50.930;3.140;2023-02-12T06:16:36;19.93;;;16.00;;
18142;SDS011;9197;50.930;3.140;2023-02-12T06:19:04;21.90;;;16.23;;
18142;SDS011;9197;50.930;3.140;2023-02-12T06:21:33;19.87;;;16.33;;
18142;SDS011;9197;50.930;3.140;2023-02-12T06:24:00;20.87;;;17.17;;
18142;SDS011;9197;50.930;3.140;2023-02-12T06:26:27;22.53;;;17.03;;
18142;SDS011;9197;50.930;3.140;2023-02-12T06:28:54;23.50;;;18.03;;
18142;SDS011;9197;50.930;3.140;2023-02-12T06:31:22;21.33;;;16.83;;
18142;SDS011;9197;50.930;3.140;2023-02-12T06:33:50;24.80;;;18.10;;
18142;SDS011;9197;50.930;3.140;2023-02-12T06:36:17;21.80;;;18.33;;
18142;SDS011;9197;50.930;3.140;2023-02-12T06:38:47;25.93;;;18.63;;
18142;SDS011;9197;50.930;3.140;2023-02-12T06:41:14;23.23;;;19.17;;
18142;SDS011;9197;50.930;3.140;2023-02-12T06:43:42;23.00;;;18.13;;
18142;SDS011;9197;50.930;3.140;2023-02-12T06:46:12;22.47;;;18.43;;
18142;SDS011;9197;50.930;3.140;2023-02-12T06:48:39;24.97;;;19.40;;
18142;SDS011;9197;50.930;3.140;2023-02-12T06:51:07;22.63;;;18.53;;
18142;SDS011;9197;50.930;3.140;2023-02-12T06:53:35;23.87;;;18.73;;
18142;SDS011;9197;50.930;3.140;2023-02-12T06:56:05;26.17;;;18.50;;
18142;SDS011;9197;50.930;3.140;2023-02-12T06:58:35;24.23;;;18.83;;
18142;SDS011;9197;50.930;3.140;2023-02-12T07:01:09;22.43;;;18.03;;
18142;SDS011;9197;50.930;3.140;2023-02-12T07:03:37;24.03;;;18.53;;
18142;SDS011;9197;50.930;3.140;2023-02-12T07:06:05;22.20;;;17.23;;
18142;SDS011;9197;50.930;3.140;2023-02-12T07:08:32;21.67;;;18.00;;
18142;SDS011;9197;50.930;3.140;2023-02-12T07:10:59;23.97;;;19.77;;
18142;SDS011;9197;50.930;3.140;2023-02-12T07:13:28;23.23;;;18.60;;
18142;SDS011;9197;50.930;3.140;2023-02-12T07:15:55;24.43;;;18.57;;
18142;SDS011;9197;50.930;3.140;2023-02-12T07:18:22;25.53;;;18.77;;
18142;SDS011;9197;50.930;3.140;2023-02-12T07:20:49;22.70;;;18.37;;
18142;SDS011;9197;50.930;3.140;2023-02-12T07:23:17;26.10;;;19.57;;
18142;SDS011;9197;50.930;3.140;2023-02-12T07:25:52;22.37;;;17.70;;
18142;SDS011;9197;50.930;3.140;2023-02-12T07:28:20;22.63;;;18.53;;
18142;SDS011;9197;50.930;3.140;2023-02-12T07:30:48;25.77;;;18.13;;
18142;SDS011;9197;50.930;3.140;2023-02-12T07:33:16;20.90;;;17.40;;
18142;SDS011;9197;50.930;3.140;2023-02-12T07:35:43;21.27;;;16.53;;
18142;SDS011;9197;50.930;3.140;2023-02-12T07:38:11;20.50;;;17.27;;
18142;SDS011;9197;50.930;3.140;2023-02-12T07:40:38;19.33;;;16.63;;
18142;SDS011;9197;50.930;3.140;2023-02-12T07:43:05;21.90;;;17.87;;
18142;SDS011;9197;50.930;3.140;2023-02-12T07:45:33;24.17;;;17.10;;
18142;SDS011;9197;50.930;3.140;2023-02-12T07:48:01;21.23;;;18.03;;
18142;SDS011;9197;50.930;3.140;2023-02-12T07:50:29;21.40;;;17.33;;
18142;SDS011;9197;50.930;3.140;2023-02-12T07:52:56;21.83;;;18.13;;
18142;SDS011;9197;50.930;3.140;2023-02-12T07:55:23;26.60;;;19.63;;
18142;SDS011;9197;50.930;3.140;2023-02-12T07:57:50;23.30;;;18.43;;
18142;SDS011;9197;50.930;3.140;2023-02-12T08:00:18;25.03;;;19.23;;
18142;SDS011;9197;50.930;3.140;2023-02-12T08:02:49;23.47;;;18.70;;
18142;SDS011;9197;50.930;3.140;2023-02-12T08:05:18;22.03;;;16.90;;
18142;SDS011;9197;50.930;3.140;2023-02-12T08:07:46;22.93;;;18.00;;
18142;SDS011;9197;50.930;3.140;2023-02-12T08:10:13;22.63;;;18.80;;
18142;SDS011;9197;50.930;3.140;2023-02-12T08:12:40;24.93;;;19.63;;
18142;SDS011;9197;50.930;3.140;2023-02-12T08:15:08;22.70;;;17.13;;
18142;SDS011;9197;50.930;3.140;2023-02-12T08:17:35;20.97;;;17.20;;
18142;SDS011;9197;50.930;3.140;2023-02-12T08:20:03;20.93;;;15.77;;
18142;SDS011;9197;50.930;3.140;2023-02-12T08:22:32;18.63;;;14.70;;
18142;SDS011;9197;50.930;3.140;2023-02-12T08:24:59;21.37;;;16.13;;
18142;SDS011;9197;50.930;3.140;2023-02-12T08:27:26;19.97;;;16.77;;
18142;SDS011;9197;50.930;3.140;2023-02-12T08:29:54;19.67;;;16.57;;
18142;SDS011;9197;50.930;3.140;2023-02-12T08:32:21;21.20;;;17.50;;
18142;SDS011;9197;50.930;3.140;2023-02-12T08:34:48;18.23;;;16.20;;
18142;SDS011;9197;50.930;3.140;2023-02-12T08:37:15;22.70;;;18.13;;
18142;SDS011;9197;50.930;3.140;2023-02-12T08:39:44;22.73;;;18.57;;
18142;SDS011;9197;50.930;3.140;2023-02-12T08:42:11;23.43;;;18.37;;
18142;SDS011;9197;50.930;3.140;2023-02-12T08:44:38;21.87;;;18.40;;
18142;SDS011;9197;50.930;3.140;2023-02-12T08:47:05;22.50;;;18.37;;
18142;SDS011;9197;50.930;3.140;2023-02-12T08:49:34;26.20;;;19.23;;
18142;SDS011;9197;50.930;3.140;2023-02-12T08:52:01;29.33;;;20.37;;
18142;SDS011;9197;50.930;3.140;2023-02-12T08:54:29;23.23;;;20.67;;
18142;SDS011;9197;50.930;3.140;2023-02-12T08:56:59;26.27;;;20.57;;
18142;SDS011;9197;50.930;3.140;2023-02-12T08:59:26;26.47;;;19.97;;
18142;SDS011;9197;50.930;3.140;2023-02-12T09:01:54;24.53;;;19.80;;
18142;SDS011;9197;50.930;3.140;2023-02-12T09:04:21;25.00;;;19.50;;
18142;SDS011;9197;50.930;3.140;2023-02-12T09:06:49;24.17;;;18.43;;
18142;SDS011;9197;50.930;3.140;2023-02-12T09:09:17;20.87;;;17.80;;
18142;SDS011;9197;50.930;3.140;2023-02-12T09:11:44;23.87;;;19.83;;
18142;SDS011;9197;50.930;3.140;2023-02-12T09:14:14;24.03;;;18.47;;
18142;SDS011;9197;50.930;3.140;2023-02-12T09:16:43;24.10;;;18.67;;
18142;SDS011;9197;50.930;3.140;2023-02-12T09:19:10;25.77;;;19.80;;
18142;SDS011;9197;50.930;3.140;2023-02-12T09:21:38;27.47;;;20.17;;
18142;SDS011;9197;50.930;3.140;2023-02-12T09:24:05;24.90;;;19.03;;
18142;SDS011;9197;50.930;3.140;2023-02-12T09:26:33;24.07;;;18.60;;
18142;SDS011;9197;50.930;3.140;2023-02-12T09:29:00;24.00;;;19.57;;
18142;SDS011;9197;50.930;3.140;2023-02-12T09:31:30;25.00;;;20.17;;
18142;SDS011;9197;50.930;3.140;2023-02-12T09:33:59;24.80;;;19.77;;
18142;SDS011;9197;50.930;3.140;2023-02-12T09:36:27;26.47;;;20.13;;
18142;SDS011;9197;50.930;3.140;2023-02-12T09:38:57;23.60;;;18.97;;
18142;SDS011;9197;50.930;3.140;2023-02-12T09:44:20;24.80;;;19.57;;
18142;SDS011;9197;50.930;3.140;2023-02-12T09:46:51;22.80;;;19.33;;
18142;SDS011;9197;50.930;3.140;2023-02-12T09:49:22;28.27;;;21.03;;
18142;SDS011;9197;50.930;3.140;2023-02-12T09:51:52;25.47;;;20.20;;
18142;SDS011;9197;50.930;3.140;2023-02-12T09:54:20;28.07;;;22.30;;
18142;SDS011;9197;50.930;3.140;2023-02-12T09:56:49;24.70;;;21.83;;
18142;SDS011;9197;50.930;3.140;2023-02-12T09:59:20;25.60;;;21.30;;
18142;SDS011;9197;50.930;3.140;2023-02-12T10:01:51;25.83;;;21.43;;
18142;SDS011;9197;50.930;3.140;2023-02-12T10:04:25;25.20;;;20.90;;
18142;SDS011;9197;50.930;3.140;2023-02-12T10:06:55;29.27;;;23.17;;
18142;SDS011;9197;50.930;3.140;2023-02-12T10:09:33;27.97;;;23.43;;
18142;SDS011;9197;50.930;3.140;2023-02-12T10:12:04;29.47;;;22.47;;
18142;SDS011;9197;50.930;3.140;2023-02-12T10:17:31;24.20;;;19.70;;
18142;SDS011;9197;50.930;3.140;2023-02-12T10:20:06;23.57;;;21.00;;
18142;SDS011;9197;50.930;3.140;2023-02-12T10:22:39;20.20;;;17.83;;
18142;SDS011;9197;50.930;3.140;2023-02-12T10:25:13;21.80;;;18.87;;
18142;SDS011;9197;50.930;3.140;2023-02-12T10:27:48;24.53;;;20.17;;
18142;SDS011;9197;50.930;3.140;2023-02-12T10:30:17;25.03;;;21.80;;
18142;SDS011;9197;50.930;3.140;2023-02-12T10:32:47;26.47;;;22.80;;
18142;SDS011;9197;50.930;3.140;2023-02-12T10:35:17;27.07;;;23.00;;
18142;SDS011;9197;50.930;3.140;2023-02-12T10:37:48;25.67;;;22.90;;
18142;SDS011;9197;50.930;3.140;2023-02-12T10:40:25;27.13;;;23.50;;
18142;SDS011;9197;50.930;3.140;2023-02-12T10:42:56;31.83;;;24.57;;
18142;SDS011;9197;50.930;3.140;2023-02-12T10:45:28;23.07;;;19.93;;
18142;SDS011;9197;50.930;3.140;2023-02-12T10:48:08;25.43;;;19.73;;
18142;SDS011;9197;50.930;3.140;2023-02-12T10:50:48;26.70;;;21.90;;
18142;SDS011;9197;50.930;3.140;2023-02-12T10:53:17;22.50;;;20.10;;
18142;SDS011;9197;50.930;3.140;2023-02-12T10:55:48;25.90;;;21.83;;
18142;SDS011;9197;50.930;3.140;2023-02-12T10:58:17;26.03;;;23.07;;
18142;SDS011;9197;50.930;3.140;2023-02-12T11:00:54;29.97;;;23.50;;
18142;SDS011;9197;50.930;3.140;2023-02-12T11:03:26;27.60;;;21.70;;
18142;SDS011;9197;50.930;3.140;2023-02-12T11:05:53;24.30;;;19.90;;
18142;SDS011;9197;50.930;3.140;2023-02-12T11:08:28;24.83;;;20.93;;
18142;SDS011;9197;50.930;3.140;2023-02-12T11:11:01;26.57;;;21.47;;
18142;SDS011;9197;50.930;3.140;2023-02-12T11:13:28;23.83;;;20.07;;
18142;SDS011;9197;50.930;3.140;2023-02-12T11:15:56;27.03;;;21.30;;
18142;SDS011;9197;50.930;3.140;2023-02-12T11:18:26;24.63;;;20.50;;
18142;SDS011;9197;50.930;3.140;2023-02-12T11:20:57;28.43;;;20.47;;
18142;SDS011;9197;50.930;3.140;2023-02-12T11:23:26;28.73;;;22.80;;
18142;SDS011;9197;50.930;3.140;2023-02-12T11:25:56;29.30;;;21.10;;
18142;SDS011;9197;50.930;3.140;2023-02-12T11:28:23;27.10;;;21.70;;
18142;SDS011;9197;50.930;3.140;2023-02-12T11:30:51;27.40;;;23.30;;
18142;SDS011;9197;50.930;3.140;2023-02-12T11:33:21;27.10;;;22.30;;
18142;SDS011;9197;50.930;3.140;2023-02-12T11:35:51;28.13;;;24.03;;
18142;SDS011;9197;50.930;3.140;2023-02-12T11:38:20;66.30;;;48.57;;
18142;SDS011;9197;50.930;3.140;2023-02-12T11:40:49;185.67;;;124.53;;
18142;SDS011;9197;50.930;3.140;2023-02-12T11:43:17;68.70;;;49.83;;
18142;SDS011;9197;50.930;3.140;2023-02-12T11:45:45;31.70;;;27.67;;
18142;SDS011;9197;50.930;3.140;2023-02-12T11:48:17;28.27;;;25.00;;
18142;SDS011;9197;50.930;3.140;2023-02-12T11:50:45;40.73;;;34.67;;
18142;SDS011;9197;50.930;3.140;2023-02-12T11:53:18;29.83;;;24.83;;
18142;SDS011;9197;50.930;3.140;2023-02-12T11:55:51;37.67;;;32.30;;
18142;SDS011;9197;50.930;3.140;2023-02-12T11:58:21;25.37;;;21.10;;
18142;SDS011;9197;50.930;3.140;2023-02-12T12:00:50;21.53;;;19.27;;
18142;SDS011;9197;50.930;3.140;2023-02-12T12:03:20;23.37;;;20.77;;
18142;SDS011;9197;50.930;3.140;2023-02-12T12:05:49;23.20;;;20.33;;
18142;SDS011;9197;50.930;3.140;2023-02-12T12:08:20;24.43;;;20.73;;
18142;SDS011;9197;50.930;3.140;2023-02-12T12:10:50;23.87;;;20.70;;
18142;SDS011;9197;50.930;3.140;2023-02-12T12:13:21;22.53;;;19.13;;
18142;SDS011;9197;50.930;3.140;2023-02-12T12:15:51;24.83;;;20.93;;
18142;SDS011;9197;50.930;3.140;2023-02-12T12:18:39;23.13;;;19.97;;
18142;SDS011;9197;50.930;3.140;2023-02-12T12:21:27;25.77;;;22.07;;
18142;SDS011;9197;50.930;3.140;2023-02-12T12:23:59;29.00;;;23.47;;
18142;SDS011;9197;50.930;3.140;2023-02-12T12:26:29;27.93;;;23.33;;
18142;SDS011;9197;50.930;3.140;2023-02-12T12:29:00;30.07;;;23.23;;
18142;SDS011;9197;50.930;3.140;2023-02-12T12:31:27;29.67;;;24.07;;
18142;SDS011;9197;50.930;3.140;2023-02-12T12:34:01;27.37;;;20.03;;
18142;SDS011;9197;50.930;3.140;2023-02-12T12:36:36;29.60;;;20.93;;
18142;SDS011;9197;50.930;3.140;2023-02-12T12:39:11;22.93;;;20.47;;
18142;SDS011;9197;50.930;3.140;2023-02-12T12:41:46;21.57;;;17.50;;
18142;SDS011;9197;50.930;3.140;2023-02-12T12:44:20;20.00;;;17.87;;
18142;SDS011;9197;50.930;3.140;2023-02-12T12:46:55;23.13;;;20.63;;
18142;SDS011;9197;50.930;3.140;2023-02-12T12:49:29;20.67;;;18.47;;
18142;SDS011;9197;50.930;3.140;2023-02-12T12:52:11;21.20;;;17.53;;
18142;SDS011;9197;50.930;3.140;2023-02-12T12:54:47;21.10;;;18.23;;
18142;SDS011;9197;50.930;3.140;2023-02-12T12:57:19;27.73;;;20.67;;
18142;SDS011;9197;50.930;3.140;2023-02-12T13:05:44;24.67;;;19.30;;
18142;SDS011;9197;50.930;3.140;2023-02-12T13:08:21;20.60;;;18.40;;
18142;SDS011;9197;50.930;3.140;2023-02-12T13:10:54;22.40;;;18.87;;
18142;SDS011;9197;50.930;3.140;2023-02-12T13:13:24;23.77;;;18.20;;
18142;SDS011;9197;50.930;3.140;2023-02-12T13:15:57;26.70;;;18.33;;
18142;SDS011;9197;50.930;3.140;2023-02-12T13:18:30;18.83;;;15.60;;
18142;SDS011;9197;50.930;3.140;2023-02-12T13:21:03;21.70;;;17.27;;
18142;SDS011;9197;50.930;3.140;2023-02-12T13:23:34;20.13;;;16.53;;
18142;SDS011;9197;50.930;3.140;2023-02-12T13:26:06;24.83;;;18.83;;
18142;SDS011;9197;50.930;3.140;2023-02-12T13:28:37;21.77;;;16.20;;
18142;SDS011;9197;50.930;3.140;2023-02-12T13:31:06;21.03;;;16.53;;
18142;SDS011;9197;50.930;3.140;2023-02-12T13:33:37;22.73;;;17.07;;
18142;SDS011;9197;50.930;3.140;2023-02-12T13:36:07;20.67;;;16.70;;
18142;SDS011;9197;50.930;3.140;2023-02-12T13:38:36;24.23;;;20.53;;
18142;SDS011;9197;50.930;3.140;2023-02-12T13:41:06;28.37;;;25.33;;
18142;SDS011;9197;50.930;3.140;2023-02-12T13:43:38;26.63;;;21.50;;
18142;SDS011;9197;50.930;3.140;2023-02-12T13:46:10;24.60;;;19.30;;
18142;SDS011;9197;50.930;3.140;2023-02-12T13:48:43;21.00;;;18.37;;
18142;SDS011;9197;50.930;3.140;2023-02-12T13:51:16;23.97;;;19.37;;
18142;SDS011;9197;50.930;3.140;2023-02-12T13:53:45;30.47;;;22.03;;
18142;SDS011;9197;50.930;3.140;2023-02-12T13:56:23;21.67;;;18.47;;
18142;SDS011;9197;50.930;3.140;2023-02-12T13:58:53;21.20;;;17.27;;
18142;SDS011;9197;50.930;3.140;2023-02-12T14:01:34;20.90;;;18.70;;
18142;SDS011;9197;50.930;3.140;2023-02-12T14:04:15;24.77;;;18.17;;
18142;SDS011;9197;50.930;3.140;2023-02-12T14:06:52;21.03;;;17.00;;
18142;SDS011;9197;50.930;3.140;2023-02-12T14:09:21;19.23;;;15.73;;
18142;SDS011;9197;50.930;3.140;2023-02-12T14:11:53;19.40;;;16.17;;
18142;SDS011;9197;50.930;3.140;2023-02-12T14:14:23;19.37;;;17.30;;
18142;SDS011;9197;50.930;3.140;2023-02-12T14:16:51;19.27;;;15.47;;
18142;SDS011;9197;50.930;3.140;2023-02-12T14:19:38;19.57;;;15.20;;
18142;SDS011;9197;50.930;3.140;2023-02-12T14:22:09;20.20;;;15.37;;
18142;SDS011;9197;50.930;3.140;2023-02-12T14:24:45;21.73;;;16.10;;
18142;SDS011;9197;50.930;3.140;2023-02-12T14:33:09;21.97;;;18.00;;
18142;SDS011;9197;50.930;3.140;2023-02-12T14:35:38;23.87;;;16.67;;
18142;SDS011;9197;50.930;3.140;2023-02-12T14:40:49;25.13;;;17.57;;
18142;SDS011;9197;50.930;3.140;2023-02-12T14:43:27;21.67;;;17.10;;
18142;SDS011;9197;50.930;3.140;2023-02-12T14:45:55;20.80;;;16.83;;
18142;SDS011;9197;50.930;3.140;2023-02-12T14:48:43;22.67;;;17.30;;
18142;SDS011;9197;50.930;3.140;2023-02-12T14:51:13;22.97;;;17.53;;
18142;SDS011;9197;50.930;3.140;2023-02-12T14:53:42;22.07;;;17.70;;
18142;SDS011;9197;50.930;3.140;2023-02-12T14:56:10;23.50;;;18.40;;
18142;SDS011;9197;50.930;3.140;2023-02-12T14:58:37;22.87;;;17.80;;
18142;SDS011;9197;50.930;3.140;2023-02-12T15:01:06;20.73;;;17.77;;
18142;SDS011;9197;50.930;3.140;2023-02-12T15:03:37;22.50;;;18.27;;
18142;SDS011;9197;50.930;3.140;2023-02-12T15:06:10;23.03;;;17.50;;
18142;SDS011;9197;50.930;3.140;2023-02-12T15:08:42;26.30;;;20.33;;
18142;SDS011;9197;50.930;3.140;2023-02-12T15:11:20;29.13;;;18.80;;
18142;SDS011;9197;50.930;3.140;2023-02-12T15:13:51;23.57;;;18.00;;